createdAt,value
2023-11-27T00:02:09.348Z,-1.60
2023-11-27T00:04:42.295Z,-1.60
2023-11-27T00:07:15.640Z,-1.50
2023-11-27T00:09:48.632Z,-1.40
2023-11-27T00:12:22.206Z,-1.50
2023-11-27T00:14:58.193Z,-1.40
2023-11-27T00:17:31.548Z,-1.40
2023-11-27T00:20:04.819Z,-1.40
2023-11-27T00:22:38.078Z,-1.40
2023-11-27T00:25:11.059Z,-1.40
2023-11-27T00:27:44.559Z,-1.40
2023-11-27T00:30:17.585Z,-1.30
2023-11-27T00:32:51.297Z,-1.40
2023-11-27T00:35:24.115Z,-1.40
2023-11-27T00:37:57.903Z,-1.40
2023-11-27T00:40:30.923Z,-1.40
2023-11-27T00:43:05.711Z,-1.40
2023-11-27T00:45:38.703Z,-1.40
2023-11-27T00:48:12.135Z,-1.40
2023-11-27T00:50:44.898Z,-1.40
2023-11-27T00:53:20.816Z,-1.40
2023-11-27T00:55:53.840Z,-1.40
2023-11-27T00:58:27.056Z,-1.40
2023-11-27T01:00:59.956Z,-1.40
2023-11-27T01:03:33.359Z,-1.30
2023-11-27T01:06:15.024Z,-1.30
2023-11-27T01:08:48.595Z,-1.20
2023-11-27T01:11:21.308Z,-1.20
2023-11-27T01:13:56.222Z,-1.20
2023-11-27T01:16:29.033Z,-1.20
2023-11-27T01:19:04.264Z,-1.20
2023-11-27T01:21:37.016Z,-1.20
2023-11-27T01:24:09.848Z,-1.20
2023-11-27T01:26:43.415Z,-1.20
2023-11-27T01:29:19.981Z,-1.20
2023-11-27T01:31:52.748Z,-1.20
2023-11-27T01:34:25.955Z,-1.20
2023-11-27T01:36:58.973Z,-1.30
2023-11-27T01:39:32.032Z,-1.30
2023-11-27T01:42:06.133Z,-1.40
2023-11-27T01:44:39.835Z,-1.40
2023-11-27T01:47:13.113Z,-1.50
2023-11-27T01:49:47.750Z,-1.50
2023-11-27T01:52:22.966Z,-1.60
2023-11-27T01:54:57.889Z,-1.60
2023-11-27T01:57:30.824Z,-1.70
2023-11-27T02:00:06.432Z,-1.70
2023-11-27T02:02:43.702Z,-1.70
2023-11-27T02:05:18.176Z,-1.80
2023-11-27T02:07:51.041Z,-1.80
2023-11-27T02:10:24.297Z,-1.90
2023-11-27T02:12:57.088Z,-1.90
2023-11-27T02:15:30.098Z,-1.90
2023-11-27T02:18:03.342Z,-1.90
2023-11-27T02:20:36.500Z,-1.90
2023-11-27T02:23:17.073Z,-1.90
2023-11-27T02:25:50.056Z,-1.90
2023-11-27T02:28:22.761Z,-2.00
2023-11-27T02:30:55.990Z,-2.00
2023-11-27T02:33:28.707Z,-2.00
2023-11-27T02:36:01.841Z,-2.10
2023-11-27T02:38:35.088Z,-2.10
2023-11-27T02:41:08.541Z,-2.00
2023-11-27T02:43:41.579Z,-2.00
2023-11-27T02:46:16.610Z,-2.00
2023-11-27T02:48:50.025Z,-2.00
2023-11-27T02:51:23.384Z,-2.10
2023-11-27T02:53:56.348Z,-2.10
2023-11-27T02:56:29.487Z,-2.10
2023-11-27T02:59:02.299Z,-2.10
2023-11-27T03:01:35.511Z,-2.10
2023-11-27T03:04:10.119Z,-2.10
2023-11-27T03:06:43.189Z,-2.10
2023-11-27T03:09:18.315Z,-2.00
2023-11-27T03:11:52.430Z,-2.00
2023-11-27T03:14:25.615Z,-2.00
2023-11-27T03:16:58.821Z,-2.00
2023-11-27T03:19:37.764Z,-2.10
2023-11-27T03:22:18.624Z,-2.10
2023-11-27T03:24:52.017Z,-2.10
2023-11-27T03:27:25.347Z,-2.00
2023-11-27T03:30:00.243Z,-2.00
2023-11-27T03:32:35.719Z,-2.00
2023-11-27T03:35:10.047Z,-2.10
2023-11-27T03:37:44.700Z,-2.10
2023-11-27T03:40:17.647Z,-2.00
2023-11-27T03:42:52.088Z,-2.10
2023-11-27T03:45:25.198Z,-2.10
2023-11-27T03:47:58.848Z,-2.10
2023-11-27T03:50:31.622Z,-2.10
2023-11-27T03:53:05.469Z,-2.10
2023-11-27T03:55:38.273Z,-2.00
2023-11-27T03:58:12.216Z,-2.10
2023-11-27T04:00:46.130Z,-2.10
2023-11-27T04:03:19.433Z,-2.10
2023-11-27T04:05:52.683Z,-2.10
2023-11-27T04:08:26.501Z,-2.00
2023-11-27T04:10:59.653Z,-2.00
2023-11-27T04:13:32.994Z,-1.90
2023-11-27T04:16:07.300Z,-1.90
2023-11-27T04:18:40.745Z,-1.80
2023-11-27T04:21:18.510Z,-1.80
2023-11-27T04:23:51.709Z,-1.70
2023-11-27T04:26:24.555Z,-1.50
2023-11-27T04:28:57.955Z,-1.50
2023-11-27T04:31:30.790Z,-1.40
2023-11-27T04:34:03.904Z,-1.30
2023-11-27T04:36:36.655Z,-1.30
2023-11-27T04:39:12.673Z,-1.20
2023-11-27T04:41:45.335Z,-1.20
2023-11-27T04:44:20.345Z,-1.20
2023-11-27T04:46:54.836Z,-1.20
2023-11-27T04:49:28.466Z,-1.20
2023-11-27T04:52:01.204Z,-1.30
2023-11-27T04:54:34.201Z,-1.30
2023-11-27T04:57:07.523Z,-1.40
2023-11-27T04:59:40.538Z,-1.40
2023-11-27T05:02:13.377Z,-1.50
2023-11-27T05:04:46.829Z,-1.50
2023-11-27T05:07:19.676Z,-1.60
2023-11-27T05:09:53.022Z,-1.60
2023-11-27T05:12:32.705Z,-1.70
2023-11-27T05:15:07.546Z,-1.70
2023-11-27T05:17:40.626Z,-1.70
2023-11-27T05:20:14.059Z,-1.80
2023-11-27T05:22:46.885Z,-1.70
2023-11-27T05:25:20.081Z,-1.70
2023-11-27T05:27:53.063Z,-1.70
2023-11-27T05:30:26.386Z,-1.70
2023-11-27T05:32:59.253Z,-1.60
2023-11-27T05:35:32.407Z,-1.60
2023-11-27T05:38:05.125Z,-1.50
2023-11-27T05:40:38.134Z,-1.40
2023-11-27T05:43:12.646Z,-1.30
2023-11-27T05:45:46.657Z,-1.30
2023-11-27T05:48:20.239Z,-1.30
2023-11-27T05:50:53.469Z,-1.30
2023-11-27T05:53:27.852Z,-1.30
2023-11-27T05:56:01.076Z,-1.30
2023-11-27T05:58:33.802Z,-1.40
2023-11-27T06:01:07.346Z,-1.40
2023-11-27T06:03:40.215Z,-1.50
2023-11-27T06:06:14.347Z,-1.50
2023-11-27T06:08:47.121Z,-1.60
2023-11-27T06:11:20.152Z,-1.60
2023-11-27T06:13:52.886Z,-1.70
2023-11-27T06:16:26.809Z,-1.70
2023-11-27T06:18:59.583Z,-1.70
2023-11-27T06:21:32.684Z,-1.70
2023-11-27T06:24:07.650Z,-1.70
2023-11-27T06:26:40.727Z,-1.70
2023-11-27T06:29:13.642Z,-1.70
2023-11-27T06:31:46.823Z,-1.70
2023-11-27T06:34:19.588Z,-1.70
2023-11-27T06:36:53.916Z,-1.70
2023-11-27T06:39:29.304Z,-1.60
2023-11-27T06:42:02.144Z,-1.60
2023-11-27T06:47:04.369Z,-1.60
2023-11-27T06:49:37.306Z,-1.50
2023-11-27T06:52:09.865Z,-1.40
2023-11-27T06:54:42.687Z,-1.30
2023-11-27T06:57:15.250Z,-1.30
2023-11-27T06:59:48.289Z,-1.20
2023-11-27T07:02:20.921Z,-1.10
2023-11-27T07:04:53.819Z,-1.10
2023-11-27T07:07:26.555Z,-1.00
2023-11-27T07:09:59.429Z,-1.00
2023-11-27T07:12:33.245Z,-0.90
2023-11-27T07:15:06.760Z,-0.90
2023-11-27T07:17:40.027Z,-0.80
2023-11-27T07:20:22.485Z,-0.80
2023-11-27T07:22:54.985Z,-0.80
2023-11-27T07:25:27.926Z,-0.70
2023-11-27T07:28:00.544Z,-0.60
2023-11-27T07:30:36.214Z,-0.60
2023-11-27T07:33:08.907Z,-0.50
2023-11-27T07:35:42.367Z,-0.50
2023-11-27T07:38:15.166Z,-0.50
2023-11-27T07:40:47.979Z,-0.50
2023-11-27T07:43:20.607Z,-0.50
2023-11-27T07:45:53.609Z,-0.50
2023-11-27T07:48:26.290Z,-0.50
2023-11-27T07:50:59.186Z,-0.40
2023-11-27T07:53:32.306Z,-0.40
2023-11-27T07:56:05.727Z,-0.30
2023-11-27T07:58:38.677Z,-0.30
2023-11-27T08:01:17.638Z,-0.20
2023-11-27T08:03:51.271Z,-0.30
2023-11-27T08:06:26.361Z,-0.20
2023-11-27T08:08:59.534Z,-0.10
2023-11-27T08:11:34.263Z,-0.10
2023-11-27T08:14:07.072Z,0.00
2023-11-27T08:16:40.387Z,0.00
2023-11-27T08:19:18.195Z,0.00
2023-11-27T08:21:51.320Z,0.10
2023-11-27T08:24:25.788Z,0.10
2023-11-27T08:26:59.033Z,0.20
2023-11-27T08:29:32.158Z,0.30
2023-11-27T08:32:05.812Z,0.30
2023-11-27T08:34:39.763Z,0.30
2023-11-27T08:37:17.748Z,0.40
2023-11-27T08:39:50.578Z,0.40
2023-11-27T08:42:23.542Z,0.40
2023-11-27T08:44:56.316Z,0.50
2023-11-27T08:47:29.339Z,0.40
2023-11-27T08:50:02.237Z,0.30
2023-11-27T08:52:36.157Z,0.20
2023-11-27T08:55:10.633Z,0.30
2023-11-27T08:57:44.728Z,0.40
2023-11-27T09:00:22.472Z,0.50
2023-11-27T09:03:00.433Z,0.60
2023-11-27T09:05:35.544Z,0.70
2023-11-27T09:08:09.565Z,0.90
2023-11-27T09:10:42.694Z,0.90
2023-11-27T09:13:16.433Z,0.90
2023-11-27T09:15:49.412Z,0.90
2023-11-27T09:18:28.119Z,0.80
2023-11-27T09:21:10.333Z,0.70
2023-11-27T09:24:11.361Z,0.70
2023-11-27T09:26:46.046Z,0.80
2023-11-27T09:29:21.429Z,0.80
2023-11-27T09:31:56.840Z,0.80
2023-11-27T09:34:30.328Z,0.80
2023-11-27T09:37:05.478Z,0.80
2023-11-27T09:39:40.772Z,0.80
2023-11-27T09:42:13.609Z,0.80
2023-11-27T09:44:46.688Z,0.90
2023-11-27T09:47:19.710Z,1.00
2023-11-27T09:50:00.185Z,1.00
2023-11-27T09:53:03.109Z,1.00
2023-11-27T09:55:40.416Z,0.90
2023-11-27T09:58:15.198Z,0.90
